sensor_id;sensor_type;location;lat;lon;timestamp;P1;P2;P0
23240;PMS7003;11789;53.482;9.862;2022-07-06T00:02:21;1.75;1.75;1.00
23240;PMS7003;11789;53.482;9.862;2022-07-06T00:04:46;2.00;2.00;1.50
23240;PMS7003;11789;53.482;9.862;2022-07-06T00:07:11;1.50;0.50;0.50
23240;PMS7003;11789;53.482;9.862;2022-07-06T00:09:39;2.00;1.00;1.00
23240;PMS7003;11789;53.482;9.862;2022-07-06T00:12:05;3.00;1.25;1.00
23240;PMS7003;11789;53.482;9.862;2022-07-06T00:14:31;3.50;2.00;1.75
23240;PMS7003;11789;53.482;9.862;2022-07-06T00:16:57;2.00;2.00;1.25
23240;PMS7003;11789;53.482;9.862;2022-07-06T00:19:22;2.00;1.25;1.00
23240;PMS7003;11789;53.482;9.862;2022-07-06T00:21:48;2.00;2.00;1.00
23240;PMS7003;11789;53.482;9.862;2022-07-06T00:24:13;2.00;2.00;1.00
23240;PMS7003;11789;53.482;9.862;2022-07-06T00:26:38;1.50;1.25;1.00
23240;PMS7003;11789;53.482;9.862;2022-07-06T00:29:04;2.00;2.00;2.00
23240;PMS7003;11789;53.482;9.862;2022-07-06T00:31:29;3.00;1.50;1.00
23240;PMS7003;11789;53.482;9.862;2022-07-06T00:33:55;3.00;1.50;1.25
23240;PMS7003;11789;53.482;9.862;2022-07-06T00:36:20;1.00;1.00;1.00
23240;PMS7003;11789;53.482;9.862;2022-07-06T00:38:46;1.50;1.50;1.00
23240;PMS7003;11789;53.482;9.862;2022-07-06T00:41:12;6.00;1.50;1.00
23240;PMS7003;11789;53.482;9.862;2022-07-06T00:43:55;2.00;2.00;1.75
23240;PMS7003;11789;53.482;9.862;2022-07-06T00:46:31;1.00;1.00;1.00
23240;PMS7003;11789;53.482;9.862;2022-07-06T00:48:57;4.00;2.00;2.00
23240;PMS7003;11789;53.482;9.862;2022-07-06T00:51:24;3.75;2.00;1.00
23240;PMS7003;11789;53.482;9.862;2022-07-06T00:53:52;2.00;2.00;1.25
23240;PMS7003;11789;53.482;9.862;2022-07-06T00:56:20;1.00;1.00;1.00
23240;PMS7003;11789;53.482;9.862;2022-07-06T00:58:47;1.25;1.25;1.00
23240;PMS7003;11789;53.482;9.862;2022-07-06T01:01:12;2.00;1.00;1.00
23240;PMS7003;11789;53.482;9.862;2022-07-06T01:03:38;1.50;1.50;1.00
23240;PMS7003;11789;53.482;9.862;2022-07-06T01:06:04;3.25;2.00;2.00
23240;PMS7003;11789;53.482;9.862;2022-07-06T01:08:30;2.00;2.00;2.00
23240;PMS7003;11789;53.482;9.862;2022-07-06T01:10:56;2.25;1.50;1.00
23240;PMS7003;11789;53.482;9.862;2022-07-06T01:13:21;2.00;2.00;1.25
23240;PMS7003;11789;53.482;9.862;2022-07-06T01:15:47;4.00;2.00;1.50
23240;PMS7003;11789;53.482;9.862;2022-07-06T01:18:12;2.00;2.00;1.50
23240;PMS7003;11789;53.482;9.862;2022-07-06T01:20:38;2.25;2.00;1.00
23240;PMS7003;11789;53.482;9.862;2022-07-06T01:23:03;2.50;2.00;2.00
23240;PMS7003;11789;53.482;9.862;2022-07-06T01:25:29;3.75;2.00;1.00
23240;PMS7003;11789;53.482;9.862;2022-07-06T01:27:54;3.75;1.00;1.00
23240;PMS7003;11789;53.482;9.862;2022-07-06T01:30:20;2.00;2.00;1.00
23240;PMS7003;11789;53.482;9.862;2022-07-06T01:32:47;2.00;2.00;1.50
23240;PMS7003;11789;53.482;9.862;2022-07-06T01:35:13;2.00;2.00;1.50
23240;PMS7003;11789;53.482;9.862;2022-07-06T01:37:40;4.25;2.75;2.00
23240;PMS7003;11789;53.482;9.862;2022-07-06T01:40:07;1.25;1.25;1.25
23240;PMS7003;11789;53.482;9.862;2022-07-06T01:42:34;2.00;2.00;1.50
23240;PMS7003;11789;53.482;9.862;2022-07-06T01:45:00;4.75;2.00;2.00
23240;PMS7003;11789;53.482;9.862;2022-07-06T01:47:26;2.00;2.00;1.50
23240;PMS7003;11789;53.482;9.862;2022-07-06T01:49:51;2.00;2.00;2.00
23240;PMS7003;11789;53.482;9.862;2022-07-06T01:52:17;1.25;1.25;1.25
23240;PMS7003;11789;53.482;9.862;2022-07-06T01:54:43;2.75;2.00;2.00
23240;PMS7003;11789;53.482;9.862;2022-07-06T01:57:09;1.75;1.75;1.25
23240;PMS7003;11789;53.482;9.862;2022-07-06T01:59:34;1.25;1.25;1.00
23240;PMS7003;11789;53.482;9.862;2022-07-06T02:02:00;4.75;1.00;1.00
23240;PMS7003;11789;53.482;9.862;2022-07-06T02:04:25;2.00;2.00;1.75
23240;PMS7003;11789;53.482;9.862;2022-07-06T02:06:51;1.00;1.00;1.00
23240;PMS7003;11789;53.482;9.862;2022-07-06T02:09:17;3.00;1.25;1.00
23240;PMS7003;11789;53.482;9.862;2022-07-06T02:11:42;2.00;2.00;1.25
23240;PMS7003;11789;53.482;9.862;2022-07-06T02:14:08;2.25;2.00;1.25
23240;PMS7003;11789;53.482;9.862;2022-07-06T02:16:34;2.00;2.00;1.75
23240;PMS7003;11789;53.482;9.862;2022-07-06T02:18:59;2.50;2.50;2.00
23240;PMS7003;11789;53.482;9.862;2022-07-06T02:21:25;2.00;2.00;2.00
23240;PMS7003;11789;53.482;9.862;2022-07-06T02:23:50;3.50;3.00;2.00
23240;PMS7003;11789;53.482;9.862;2022-07-06T02:26:16;3.25;2.00;1.25
23240;PMS7003;11789;53.482;9.862;2022-07-06T02:28:41;1.50;1.50;1.00
23240;PMS7003;11789;53.482;9.862;2022-07-06T02:31:06;2.25;2.25;2.00
23240;PMS7003;11789;53.482;9.862;2022-07-06T02:33:32;2.00;2.00;2.00
23240;PMS7003;11789;53.482;9.862;2022-07-06T02:35:57;2.00;2.00;1.50
23240;PMS7003;11789;53.482;9.862;2022-07-06T02:38:23;3.00;1.50;1.00
23240;PMS7003;11789;53.482;9.862;2022-07-06T02:40:48;2.00;2.00;1.25
23240;PMS7003;11789;53.482;9.862;2022-07-06T02:43:14;1.00;1.00;1.00
23240;PMS7003;11789;53.482;9.862;2022-07-06T02:45:39;2.25;2.25;1.25
23240;PMS7003;11789;53.482;9.862;2022-07-06T02:48:05;1.75;1.75;1.00
23240;PMS7003;11789;53.482;9.862;2022-07-06T02:50:30;2.00;2.00;1.75
23240;PMS7003;11789;53.482;9.862;2022-07-06T02:52:56;3.50;2.00;2.00
23240;PMS7003;11789;53.482;9.862;2022-07-06T02:55:21;2.50;2.00;2.00
23240;PMS7003;11789;53.482;9.862;2022-07-06T02:57:47;2.75;2.75;2.00
23240;PMS7003;11789;53.482;9.862;2022-07-06T03:00:12;1.25;1.25;1.00
23240;PMS7003;11789;53.482;9.862;2022-07-06T03:02:38;2.00;2.00;2.00
23240;PMS7003;11789;53.482;9.862;2022-07-06T03:05:04;1.75;1.75;1.00
23240;PMS7003;11789;53.482;9.862;2022-07-06T03:07:30;2.25;2.25;1.50
23240;PMS7003;11789;53.482;9.862;2022-07-06T03:09:56;2.75;2.75;2.00
23240;PMS7003;11789;53.482;9.862;2022-07-06T03:12:21;2.00;2.00;1.00
23240;PMS7003;11789;53.482;9.862;2022-07-06T03:14:46;2.00;2.00;2.00
23240;PMS7003;11789;53.482;9.862;2022-07-06T03:17:12;2.00;2.00;1.50
23240;PMS7003;11789;53.482;9.862;2022-07-06T03:19:37;1.00;1.00;1.00
23240;PMS7003;11789;53.482;9.862;2022-07-06T03:22:03;2.00;2.00;1.00
23240;PMS7003;11789;53.482;9.862;2022-07-06T03:24:29;2.00;2.00;1.25
23240;PMS7003;11789;53.482;9.862;2022-07-06T03:26:54;2.00;2.00;2.00
23240;PMS7003;11789;53.482;9.862;2022-07-06T03:29:20;1.00;1.00;1.00
23240;PMS7003;11789;53.482;9.862;2022-07-06T03:31:45;2.50;1.00;1.00
23240;PMS7003;11789;53.482;9.862;2022-07-06T03:34:11;1.00;1.00;1.00
23240;PMS7003;11789;53.482;9.862;2022-07-06T03:36:36;1.75;1.75;1.00
23240;PMS7003;11789;53.482;9.862;2022-07-06T03:39:02;3.00;1.00;1.00
23240;PMS7003;11789;53.482;9.862;2022-07-06T03:41:28;2.00;2.00;1.00
23240;PMS7003;11789;53.482;9.862;2022-07-06T03:43:53;2.00;2.00;2.00
23240;PMS7003;11789;53.482;9.862;2022-07-06T03:46:18;1.00;1.00;1.00
23240;PMS7003;11789;53.482;9.862;2022-07-06T03:48:44;2.50;2.00;1.75
23240;PMS7003;11789;53.482;9.862;2022-07-06T03:51:10;1.25;1.25;1.00
23240;PMS7003;11789;53.482;9.862;2022-07-06T03:53:36;2.00;2.00;2.00
23240;PMS7003;11789;53.482;9.862;2022-07-06T03:56:01;2.00;2.00;2.00
23240;PMS7003;11789;53.482;9.862;2022-07-06T03:58:45;2.25;2.00;2.00
23240;PMS7003;11789;53.482;9.862;2022-07-06T04:01:11;1.00;1.00;1.00
23240;PMS7003;11789;53.482;9.862;2022-07-06T04:03:36;2.75;2.00;2.00
23240;PMS7003;11789;53.482;9.862;2022-07-06T04:06:02;2.50;2.00;1.50
23240;PMS7003;11789;53.482;9.862;2022-07-06T04:08:27;2.25;2.25;1.00
23240;PMS7003;11789;53.482;9.862;2022-07-06T04:10:52;2.00;2.00;1.50
23240;PMS7003;11789;53.482;9.862;2022-07-06T04:13:18;3.00;1.00;1.00
23240;PMS7003;11789;53.482;9.862;2022-07-06T04:15:43;1.00;1.00;1.00
23240;PMS7003;11789;53.482;9.862;2022-07-06T04:18:09;3.00;1.50;1.00
23240;PMS7003;11789;53.482;9.862;2022-07-06T04:20:34;5.75;1.50;1.00
23240;PMS7003;11789;53.482;9.862;2022-07-06T04:23:00;3.00;3.00;2.00
23240;PMS7003;11789;53.482;9.862;2022-07-06T04:25:25;2.50;2.00;1.00
23240;PMS7003;11789;53.482;9.862;2022-07-06T04:27:51;3.00;3.00;2.00
23240;PMS7003;11789;53.482;9.862;2022-07-06T04:30:16;0.75;0.50;0.50
23240;PMS7003;11789;53.482;9.862;2022-07-06T04:32:42;2.00;2.00;2.00
23240;PMS7003;11789;53.482;9.862;2022-07-06T04:35:07;3.50;2.00;1.75
23240;PMS7003;11789;53.482;9.862;2022-07-06T04:37:33;3.25;2.75;2.00
23240;PMS7003;11789;53.482;9.862;2022-07-06T04:39:59;1.75;1.75;1.50
23240;PMS7003;11789;53.482;9.862;2022-07-06T04:42:24;2.50;2.50;2.00
23240;PMS7003;11789;53.482;9.862;2022-07-06T04:44:50;4.50;1.50;1.00
23240;PMS7003;11789;53.482;9.862;2022-07-06T04:47:17;2.00;2.00;2.00
23240;PMS7003;11789;53.482;9.862;2022-07-06T04:49:42;1.00;1.00;1.00
23240;PMS7003;11789;53.482;9.862;2022-07-06T04:52:08;2.25;2.25;1.00
23240;PMS7003;11789;53.482;9.862;2022-07-06T04:54:34;3.00;1.00;1.00
23240;PMS7003;11789;53.482;9.862;2022-07-06T04:56:59;2.00;2.00;1.25
23240;PMS7003;11789;53.482;9.862;2022-07-06T04:59:25;1.00;1.00;0.75
23240;PMS7003;11789;53.482;9.862;2022-07-06T05:01:50;5.50;2.25;2.00
23240;PMS7003;11789;53.482;9.862;2022-07-06T05:04:16;2.00;2.00;2.00
23240;PMS7003;11789;53.482;9.862;2022-07-06T05:06:44;0.25;0.25;0.25
23240;PMS7003;11789;53.482;9.862;2022-07-06T05:09:10;2.50;1.50;1.00
23240;PMS7003;11789;53.482;9.862;2022-07-06T05:11:37;1.00;1.00;1.00
23240;PMS7003;11789;53.482;9.862;2022-07-06T05:14:02;1.25;1.25;1.00
23240;PMS7003;11789;53.482;9.862;2022-07-06T05:16:28;4.25;1.75;1.00
23240;PMS7003;11789;53.482;9.862;2022-07-06T05:18:54;2.00;2.00;1.00
23240;PMS7003;11789;53.482;9.862;2022-07-06T05:21:19;3.25;1.75;1.75
23240;PMS7003;11789;53.482;9.862;2022-07-06T05:23:44;1.75;1.75;1.00
23240;PMS7003;11789;53.482;9.862;2022-07-06T05:26:10;1.50;1.50;1.00
23240;PMS7003;11789;53.482;9.862;2022-07-06T05:28:35;3.00;1.25;1.00
23240;PMS7003;11789;53.482;9.862;2022-07-06T05:31:01;2.00;2.00;1.00
23240;PMS7003;11789;53.482;9.862;2022-07-06T05:33:29;1.00;1.00;1.00
23240;PMS7003;11789;53.482;9.862;2022-07-06T05:35:55;2.50;2.50;2.00
23240;PMS7003;11789;53.482;9.862;2022-07-06T05:38:20;1.00;1.00;1.00
23240;PMS7003;11789;53.482;9.862;2022-07-06T05:40:46;3.50;2.00;1.00
23240;PMS7003;11789;53.482;9.862;2022-07-06T05:43:11;1.50;1.00;1.00
23240;PMS7003;11789;53.482;9.862;2022-07-06T05:45:37;2.00;2.00;1.50
23240;PMS7003;11789;53.482;9.862;2022-07-06T05:48:02;1.75;1.00;1.00
23240;PMS7003;11789;53.482;9.862;2022-07-06T05:50:46;0.00;0.00;0.00
23240;PMS7003;11789;53.482;9.862;2022-07-06T05:53:12;1.00;1.00;1.00
23240;PMS7003;11789;53.482;9.862;2022-07-06T05:55:37;2.75;0.75;0.75
23240;PMS7003;11789;53.482;9.862;2022-07-06T05:58:03;1.00;1.00;0.75
23240;PMS7003;11789;53.482;9.862;2022-07-06T06:00:28;1.00;1.00;1.00
23240;PMS7003;11789;53.482;9.862;2022-07-06T06:02:54;2.50;1.00;0.50
23240;PMS7003;11789;53.482;9.862;2022-07-06T06:05:20;1.50;1.00;0.00
23240;PMS7003;11789;53.482;9.862;2022-07-06T06:07:47;1.00;1.00;1.00
23240;PMS7003;11789;53.482;9.862;2022-07-06T06:10:15;2.75;1.00;0.75
23240;PMS7003;11789;53.482;9.862;2022-07-06T06:12:41;2.00;2.00;2.00
23240;PMS7003;11789;53.482;9.862;2022-07-06T06:15:07;1.00;1.00;1.00
23240;PMS7003;11789;53.482;9.862;2022-07-06T06:17:33;1.00;1.00;1.00
23240;PMS7003;11789;53.482;9.862;2022-07-06T06:20:00;2.00;0.25;0.00
23240;PMS7003;11789;53.482;9.862;2022-07-06T06:22:25;1.00;1.00;1.00
23240;PMS7003;11789;53.482;9.862;2022-07-06T06:24:51;1.00;1.00;1.00
23240;PMS7003;11789;53.482;9.862;2022-07-06T06:27:17;0.00;0.00;0.00
23240;PMS7003;11789;53.482;9.862;2022-07-06T06:29:42;0.25;0.25;0.00
23240;PMS7003;11789;53.482;9.862;2022-07-06T06:32:10;0.75;0.75;0.50
23240;PMS7003;11789;53.482;9.862;2022-07-06T06:34:36;1.25;1.25;0.25
23240;PMS7003;11789;53.482;9.862;2022-07-06T06:37:02;0.75;0.75;0.50
23240;PMS7003;11789;53.482;9.862;2022-07-06T06:39:28;1.00;1.00;1.00
23240;PMS7003;11789;53.482;9.862;2022-07-06T06:41:53;1.00;1.00;0.00
23240;PMS7003;11789;53.482;9.862;2022-07-06T06:44:19;3.75;1.00;1.00
23240;PMS7003;11789;53.482;9.862;2022-07-06T06:46:47;0.50;0.50;0.00
23240;PMS7003;11789;53.482;9.862;2022-07-06T06:49:13;0.25;0.00;0.00
23240;PMS7003;11789;53.482;9.862;2022-07-06T06:51:38;2.50;1.00;1.00
23240;PMS7003;11789;53.482;9.862;2022-07-06T06:54:04;1.00;1.00;0.75
23240;PMS7003;11789;53.482;9.862;2022-07-06T06:56:30;1.75;0.25;0.00
23240;PMS7003;11789;53.482;9.862;2022-07-06T06:58:55;0.00;0.00;0.00
23240;PMS7003;11789;53.482;9.862;2022-07-06T07:01:21;1.00;1.00;1.00
23240;PMS7003;11789;53.482;9.862;2022-07-06T07:03:46;2.00;0.00;0.00
23240;PMS7003;11789;53.482;9.862;2022-07-06T07:06:12;0.00;0.00;0.00
23240;PMS7003;11789;53.482;9.862;2022-07-06T07:08:37;0.00;0.00;0.00
23240;PMS7003;11789;53.482;9.862;2022-07-06T07:11:03;1.00;1.00;0.00
23240;PMS7003;11789;53.482;9.862;2022-07-06T07:13:28;0.00;0.00;0.00
23240;PMS7003;11789;53.482;9.862;2022-07-06T07:15:54;0.00;0.00;0.00
23240;PMS7003;11789;53.482;9.862;2022-07-06T07:18:19;2.00;1.00;0.25
23240;PMS7003;11789;53.482;9.862;2022-07-06T07:20:45;1.00;1.00;1.00
23240;PMS7003;11789;53.482;9.862;2022-07-06T07:23:10;0.75;0.75;0.75
23240;PMS7003;11789;53.482;9.862;2022-07-06T07:25:36;0.00;0.00;0.00
23240;PMS7003;11789;53.482;9.862;2022-07-06T07:28:03;1.25;0.75;0.50
23240;PMS7003;11789;53.482;9.862;2022-07-06T07:30:29;1.00;1.00;0.75
23240;PMS7003;11789;53.482;9.862;2022-07-06T07:32:55;0.50;0.50;0.00
23240;PMS7003;11789;53.482;9.862;2022-07-06T07:35:21;2.00;0.00;0.00
23240;PMS7003;11789;53.482;9.862;2022-07-06T07:37:47;1.00;1.00;0.00
23240;PMS7003;11789;53.482;9.862;2022-07-06T07:40:12;2.25;0.50;0.00
23240;PMS7003;11789;53.482;9.862;2022-07-06T07:42:38;1.25;0.75;0.00
23240;PMS7003;11789;53.482;9.862;2022-07-06T07:45:06;2.00;0.50;0.50
23240;PMS7003;11789;53.482;9.862;2022-07-06T07:47:33;1.50;0.00;0.00
23240;PMS7003;11789;53.482;9.862;2022-07-06T07:49:59;0.00;0.00;0.00
23240;PMS7003;11789;53.482;9.862;2022-07-06T07:52:24;0.00;0.00;0.00
23240;PMS7003;11789;53.482;9.862;2022-07-06T07:54:50;0.25;0.25;0.25
23240;PMS7003;11789;53.482;9.862;2022-07-06T07:57:15;1.00;1.00;0.25
23240;PMS7003;11789;53.482;9.862;2022-07-06T07:59:41;1.00;1.00;0.75
23240;PMS7003;11789;53.482;9.862;2022-07-06T08:02:07;0.00;0.00;0.00
23240;PMS7003;11789;53.482;9.862;2022-07-06T08:04:33;0.00;0.00;0.00
23240;PMS7003;11789;53.482;9.862;2022-07-06T08:06:58;0.00;0.00;0.00
23240;PMS7003;11789;53.482;9.862;2022-07-06T08:09:24;0.00;0.00;0.00
23240;PMS7003;11789;53.482;9.862;2022-07-06T08:11:49;0.00;0.00;0.00
23240;PMS7003;11789;53.482;9.862;2022-07-06T08:14:15;1.50;1.00;1.00
23240;PMS7003;11789;53.482;9.862;2022-07-06T08:16:42;0.25;0.25;0.00
23240;PMS7003;11789;53.482;9.862;2022-07-06T08:19:07;0.00;0.00;0.00
23240;PMS7003;11789;53.482;9.862;2022-07-06T08:21:34;0.50;0.50;0.00
23240;PMS7003;11789;53.482;9.862;2022-07-06T08:23:59;2.00;0.50;0.00
23240;PMS7003;11789;53.482;9.862;2022-07-06T08:26:25;1.00;0.25;0.25
23240;PMS7003;11789;53.482;9.862;2022-07-06T08:28:51;0.25;0.25;0.00
23240;PMS7003;11789;53.482;9.862;2022-07-06T08:31:17;3.75;0.50;0.00
23240;PMS7003;11789;53.482;9.862;2022-07-06T08:33:42;0.25;0.25;0.00
23240;PMS7003;11789;53.482;9.862;2022-07-06T08:36:07;0.00;0.00;0.00
23240;PMS7003;11789;53.482;9.862;2022-07-06T08:38:33;1.00;1.00;0.75
23240;PMS7003;11789;53.482;9.862;2022-07-06T08:40:58;2.00;0.00;0.00
23240;PMS7003;11789;53.482;9.862;2022-07-06T08:43:24;1.00;1.00;0.50
23240;PMS7003;11789;53.482;9.862;2022-07-06T08:45:50;0.00;0.00;0.00
23240;PMS7003;11789;53.482;9.862;2022-07-06T08:48:18;0.00;0.00;0.00
23240;PMS7003;11789;53.482;9.862;2022-07-06T08:50:48;0.00;0.00;0.00
23240;PMS7003;11789;53.482;9.862;2022-07-06T08:53:15;1.00;1.00;1.00
23240;PMS7003;11789;53.482;9.862;2022-07-06T08:55:42;1.00;1.00;1.00
23240;PMS7003;11789;53.482;9.862;2022-07-06T08:58:08;1.00;1.00;0.25
23240;PMS7003;11789;53.482;9.862;2022-07-06T09:00:34;1.00;1.00;1.00
23240;PMS7003;11789;53.482;9.862;2022-07-06T09:03:00;0.25;0.25;0.00
23240;PMS7003;11789;53.482;9.862;2022-07-06T09:05:26;0.50;0.50;0.50
23240;PMS7003;11789;53.482;9.862;2022-07-06T09:07:53;0.50;0.50;0.25
23240;PMS7003;11789;53.482;9.862;2022-07-06T09:10:20;1.00;1.00;0.00
23240;PMS7003;11789;53.482;9.862;2022-07-06T09:12:47;1.25;0.75;0.00
23240;PMS7003;11789;53.482;9.862;2022-07-06T09:15:13;2.00;1.00;0.00
23240;PMS7003;11789;53.482;9.862;2022-07-06T09:17:40;2.25;1.00;0.50
23240;PMS7003;11789;53.482;9.862;2022-07-06T09:20:07;0.50;0.50;0.00
23240;PMS7003;11789;53.482;9.862;2022-07-06T09:22:34;1.00;1.00;0.75
23240;PMS7003;11789;53.482;9.862;2022-07-06T09:25:10;0.75;0.75;0.00
23240;PMS7003;11789;53.482;9.862;2022-07-06T09:27:38;0.50;0.50;0.50
23240;PMS7003;11789;53.482;9.862;2022-07-06T09:30:05;1.75;1.00;1.00
23240;PMS7003;11789;53.482;9.862;2022-07-06T09:32:37;0.00;0.00;0.00
23240;PMS7003;11789;53.482;9.862;2022-07-06T09:35:07;0.00;0.00;0.00
23240;PMS7003;11789;53.482;9.862;2022-07-06T09:37:33;2.00;1.00;0.25
23240;PMS7003;11789;53.482;9.862;2022-07-06T09:39:59;0.75;0.75;0.50
23240;PMS7003;11789;53.482;9.862;2022-07-06T09:42:25;0.00;0.00;0.00
23240;PMS7003;11789;53.482;9.862;2022-07-06T09:44:51;0.00;0.00;0.00
23240;PMS7003;11789;53.482;9.862;2022-07-06T09:47:17;0.00;0.00;0.00
23240;PMS7003;11789;53.482;9.862;2022-07-06T09:49:43;0.00;0.00;0.00
23240;PMS7003;11789;53.482;9.862;2022-07-06T09:52:10;2.25;0.00;0.00
23240;PMS7003;11789;53.482;9.862;2022-07-06T09:54:36;0.00;0.00;0.00
23240;PMS7003;11789;53.482;9.862;2022-07-06T09:57:04;0.50;0.00;0.00
23240;PMS7003;11789;53.482;9.862;2022-07-06T09:59:31;0.00;0.00;0.00
23240;PMS7003;11789;53.482;9.862;2022-07-06T10:01:59;1.00;1.00;0.75
23240;PMS7003;11789;53.482;9.862;2022-07-06T10:04:27;0.00;0.00;0.00
23240;PMS7003;11789;53.482;9.862;2022-07-06T10:06:54;0.00;0.00;0.00
23240;PMS7003;11789;53.482;9.862;2022-07-06T10:09:20;0.00;0.00;0.00
23240;PMS7003;11789;53.482;9.862;2022-07-06T10:11:51;0.00;0.00;0.00
23240;PMS7003;11789;53.482;9.862;2022-07-06T10:14:23;0.00;0.00;0.00
23240;PMS7003;11789;53.482;9.862;2022-07-06T10:16:50;2.00;0.00;0.00
23240;PMS7003;11789;53.482;9.862;2022-07-06T10:19:17;0.00;0.00;0.00
23240;PMS7003;11789;53.482;9.862;2022-07-06T10:21:44;0.00;0.00;0.00
23240;PMS7003;11789;53.482;9.862;2022-07-06T10:24:11;1.00;0.00;0.00
23240;PMS7003;11789;53.482;9.862;2022-07-06T10:26:38;0.00;0.00;0.00
23240;PMS7003;11789;53.482;9.862;2022-07-06T10:29:04;0.00;0.00;0.00
23240;PMS7003;11789;53.482;9.862;2022-07-06T10:31:32;0.00;0.00;0.00
23240;PMS7003;11789;53.482;9.862;2022-07-06T10:34:00;0.00;0.00;0.00
23240;PMS7003;11789;53.482;9.862;2022-07-06T10:36:28;0.00;0.00;0.00
23240;PMS7003;11789;53.482;9.862;2022-07-06T10:38:54;0.00;0.00;0.00
23240;PMS7003;11789;53.482;9.862;2022-07-06T10:41:30;0.00;0.00;0.00
23240;PMS7003;11789;53.482;9.862;2022-07-06T10:43:56;0.00;0.00;0.00
23240;PMS7003;11789;53.482;9.862;2022-07-06T10:46:23;0.00;0.00;0.00
23240;PMS7003;11789;53.482;9.862;2022-07-06T10:48:53;1.00;0.00;0.00
23240;PMS7003;11789;53.482;9.862;2022-07-06T10:51:37;2.00;0.00;0.00
23240;PMS7003;11789;53.482;9.862;2022-07-06T10:54:05;1.00;0.00;0.00
23240;PMS7003;11789;53.482;9.862;2022-07-06T10:56:31;0.00;0.00;0.00
23240;PMS7003;11789;53.482;9.862;2022-07-06T10:59:13;0.00;0.00;0.00
23240;PMS7003;11789;53.482;9.862;2022-07-06T11:04:41;0.50;0.50;0.00
23240;PMS7003;11789;53.482;9.862;2022-07-06T11:07:12;0.00;0.00;0.00
23240;PMS7003;11789;53.482;9.862;2022-07-06T11:09:39;2.00;0.50;0.50
23240;PMS7003;11789;53.482;9.862;2022-07-06T11:12:16;0.00;0.00;0.00
23240;PMS7003;11789;53.482;9.862;2022-07-06T11:14:43;0.00;0.00;0.00
23240;PMS7003;11789;53.482;9.862;2022-07-06T11:17:09;1.00;1.00;1.00
23240;PMS7003;11789;53.482;9.862;2022-07-06T11:19:36;1.00;1.00;1.00
23240;PMS7003;11789;53.482;9.862;2022-07-06T11:22:09;2.00;1.00;1.00
23240;PMS7003;11789;53.482;9.862;2022-07-06T11:24:36;1.00;1.00;0.50
23240;PMS7003;11789;53.482;9.862;2022-07-06T11:27:03;1.00;1.00;0.00
23240;PMS7003;11789;53.482;9.862;2022-07-06T11:29:30;0.25;0.25;0.25
23240;PMS7003;11789;53.482;9.862;2022-07-06T11:31:57;2.50;1.00;1.00
23240;PMS7003;11789;53.482;9.862;2022-07-06T11:34:29;0.00;0.00;0.00
23240;PMS7003;11789;53.482;9.862;2022-07-06T11:36:59;0.00;0.00;0.00
23240;PMS7003;11789;53.482;9.862;2022-07-06T11:39:27;0.25;0.25;0.00
23240;PMS7003;11789;53.482;9.862;2022-07-06T11:41:57;0.00;0.00;0.00
23240;PMS7003;11789;53.482;9.862;2022-07-06T11:44:23;1.00;1.00;0.25
23240;PMS7003;11789;53.482;9.862;2022-07-06T11:46:49;4.25;1.00;0.00
23240;PMS7003;11789;53.482;9.862;2022-07-06T11:49:15;0.00;0.00;0.00
23240;PMS7003;11789;53.482;9.862;2022-07-06T11:51:41;0.00;0.00;0.00
23240;PMS7003;11789;53.482;9.862;2022-07-06T11:54:09;2.00;0.00;0.00
23240;PMS7003;11789;53.482;9.862;2022-07-06T11:56:36;1.00;1.00;1.00
23240;PMS7003;11789;53.482;9.862;2022-07-06T11:59:03;0.00;0.00;0.00
23240;PMS7003;11789;53.482;9.862;2022-07-06T12:01:30;0.00;0.00;0.00
23240;PMS7003;11789;53.482;9.862;2022-07-06T12:04:00;0.00;0.00;0.00
23240;PMS7003;11789;53.482;9.862;2022-07-06T12:06:28;0.00;0.00;0.00
23240;PMS7003;11789;53.482;9.862;2022-07-06T12:08:55;0.00;0.00;0.00
23240;PMS7003;11789;53.482;9.862;2022-07-06T12:11:30;0.00;0.00;0.00
23240;PMS7003;11789;53.482;9.862;2022-07-06T12:13:58;0.00;0.00;0.00
23240;PMS7003;11789;53.482;9.862;2022-07-06T12:16:33;0.00;0.00;0.00
23240;PMS7003;11789;53.482;9.862;2022-07-06T12:19:01;0.00;0.00;0.00
23240;PMS7003;11789;53.482;9.862;2022-07-06T12:21:28;0.00;0.00;0.00
23240;PMS7003;11789;53.482;9.862;2022-07-06T12:23:54;0.00;0.00;0.00
23240;PMS7003;11789;53.482;9.862;2022-07-06T12:26:21;0.00;0.00;0.00
23240;PMS7003;11789;53.482;9.862;2022-07-06T12:29:07;0.00;0.00;0.00
23240;PMS7003;11789;53.482;9.862;2022-07-06T12:31:36;2.00;0.00;0.00
23240;PMS7003;11789;53.482;9.862;2022-07-06T12:34:03;1.00;0.00;0.00
23240;PMS7003;11789;53.482;9.862;2022-07-06T12:36:30;2.00;0.00;0.00
23240;PMS7003;11789;53.482;9.862;2022-07-06T12:38:55;0.00;0.00;0.00
23240;PMS7003;11789;53.482;9.862;2022-07-06T12:41:28;0.00;0.00;0.00
23240;PMS7003;11789;53.482;9.862;2022-07-06T12:44:03;0.25;0.00;0.00
23240;PMS7003;11789;53.482;9.862;2022-07-06T12:46:32;0.00;0.00;0.00
23240;PMS7003;11789;53.482;9.862;2022-07-06T12:49:00;0.00;0.00;0.00
23240;PMS7003;11789;53.482;9.862;2022-07-06T12:51:47;0.00;0.00;0.00
23240;PMS7003;11789;53.482;9.862;2022-07-06T12:54:15;2.00;0.00;0.00
23240;PMS7003;11789;53.482;9.862;2022-07-06T12:56:57;0.67;0.00;0.00
23240;PMS7003;11789;53.482;9.862;2022-07-06T12:59:34;0.00;0.00;0.00
23240;PMS7003;11789;53.482;9.862;2022-07-06T13:02:02;0.00;0.00;0.00
23240;PMS7003;11789;53.482;9.862;2022-07-06T13:04:29;0.00;0.00;0.00
23240;PMS7003;11789;53.482;9.862;2022-07-06T13:06:57;0.00;0.00;0.00
23240;PMS7003;11789;53.482;9.862;2022-07-06T13:09:23;0.00;0.00;0.00
23240;PMS7003;11789;53.482;9.862;2022-07-06T13:11:48;0.00;0.00;0.00
23240;PMS7003;11789;53.482;9.862;2022-07-06T13:14:17;0.00;0.00;0.00
23240;PMS7003;11789;53.482;9.862;2022-07-06T13:16:44;0.00;0.00;0.00
23240;PMS7003;11789;53.482;9.862;2022-07-06T13:19:11;0.00;0.00;0.00
23240;PMS7003;11789;53.482;9.862;2022-07-06T13:21:37;1.00;0.00;0.00
23240;PMS7003;11789;53.482;9.862;2022-07-06T13:24:03;0.00;0.00;0.00
23240;PMS7003;11789;53.482;9.862;2022-07-06T13:26:29;0.00;0.00;0.00
23240;PMS7003;11789;53.482;9.862;2022-07-06T13:28:58;0.00;0.00;0.00
23240;PMS7003;11789;53.482;9.862;2022-07-06T13:31:26;1.00;0.00;0.00
23240;PMS7003;11789;53.482;9.862;2022-07-06T13:33:52;0.00;0.00;0.00
23240;PMS7003;11789;53.482;9.862;2022-07-06T13:36:18;0.00;0.00;0.00
23240;PMS7003;11789;53.482;9.862;2022-07-06T13:38:44;0.00;0.00;0.00
23240;PMS7003;11789;53.482;9.862;2022-07-06T13:41:10;1.00;0.00;0.00
23240;PMS7003;11789;53.482;9.862;2022-07-06T13:43:35;0.00;0.00;0.00
23240;PMS7003;11789;53.482;9.862;2022-07-06T13:46:02;0.00;0.00;0.00
23240;PMS7003;11789;53.482;9.862;2022-07-06T13:48:28;0.00;0.00;0.00
23240;PMS7003;11789;53.482;9.862;2022-07-06T13:50:55;0.00;0.00;0.00
23240;PMS7003;11789;53.482;9.862;2022-07-06T13:53:20;3.00;0.00;0.00
23240;PMS7003;11789;53.482;9.862;2022-07-06T13:55:46;0.00;0.00;0.00
23240;PMS7003;11789;53.482;9.862;2022-07-06T13:58:11;1.00;0.00;0.00
23240;PMS7003;11789;53.482;9.862;2022-07-06T14:00:37;1.00;0.00;0.00
23240;PMS7003;11789;53.482;9.862;2022-07-06T14:03:02;0.00;0.00;0.00
23240;PMS7003;11789;53.482;9.862;2022-07-06T14:05:28;0.00;0.00;0.00
23240;PMS7003;11789;53.482;9.862;2022-07-06T14:07:54;0.00;0.00;0.00
23240;PMS7003;11789;53.482;9.862;2022-07-06T14:10:20;0.00;0.00;0.00
23240;PMS7003;11789;53.482;9.862;2022-07-06T14:12:45;0.00;0.00;0.00
23240;PMS7003;11789;53.482;9.862;2022-07-06T14:15:11;0.00;0.00;0.00
23240;PMS7003;11789;53.482;9.862;2022-07-06T14:17:36;0.00;0.00;0.00
23240;PMS7003;11789;53.482;9.862;2022-07-06T14:20:02;0.00;0.00;0.00
23240;PMS7003;11789;53.482;9.862;2022-07-06T14:22:27;0.25;0.00;0.00
23240;PMS7003;11789;53.482;9.862;2022-07-06T14:24:53;0.00;0.00;0.00